Time;durP1;ratioP1;P1;durP2;ratioP2;P2;SDS_P1;SDS_P2;PMS_P1;PMS_P2;Temp;Humidity;BMP_temperature;BMP_pressure;BME280_temperature;BME280_humidity;BME280_pressure;Samples;Min_cycle;Max_cycle;Signal;HPM_P1;HPM_P2
2021/12/01 00:00:41;;;;;;;11.00;7.47;;;;;;;8.55;100.00;100158.53;4770461;30;20362;-77
2021/12/01 00:03:07;;;;;;;10.93;7.10;;;;;;;8.56;100.00;100160.22;4770527;30;20036;-82
2021/12/01 00:05:33;;;;;;;11.13;7.20;;;;;;;8.56;100.00;100157.66;4770071;30;20036;-79
2021/12/01 00:07:59;;;;;;;11.25;6.68;;;;;;;8.42;100.00;100122.50;4770444;30;20023;-77
2021/12/01 00:10:28;;;;;;;10.48;6.07;;;;;;;8.55;100.00;100137.97;4770419;30;20036;-79
2021/12/01 00:12:53;;;;;;;11.40;6.60;;;;;;;8.56;100.00;100116.47;4770404;30;20062;-79
2021/12/01 00:15:20;;;;;;;9.27;5.82;;;;;;;8.50;100.00;100109.97;4770451;30;20031;-77
2021/12/01 00:17:46;;;;;;;9.35;5.97;;;;;;;8.55;100.00;100100.22;4770488;30;20039;-78
2021/12/01 00:20:14;;;;;;;9.25;5.75;;;;;;;8.55;100.00;100100.22;4770084;30;20038;-78
2021/12/01 00:22:40;;;;;;;9.50;5.80;;;;;;;8.55;100.00;100096.78;4770771;30;20036;-77
2021/12/01 00:25:07;;;;;;;9.15;5.25;;;;;;;8.53;100.00;100084.03;4770438;30;20431;-81
2021/12/01 00:27:32;;;;;;;8.18;5.10;;;;;;;8.34;100.00;100045.81;4770323;30;20043;-77
2021/12/01 00:29:58;;;;;;;8.50;5.75;;;;;;;8.53;100.00;100062.63;4770317;30;20023;-77
2021/12/01 00:32:23;;;;;;;7.93;5.15;;;;;;;8.53;100.00;100054.91;4770365;30;20373;-77
2021/12/01 00:34:49;;;;;;;7.68;4.75;;;;;;;8.42;100.00;100035.03;4770313;30;20546;-78
2021/12/01 00:37:14;;;;;;;7.20;4.63;;;;;;;8.45;100.00;100028.84;4769888;30;20064;-77
2021/12/01 00:39:40;;;;;;;8.52;4.75;;;;;;;8.54;100.00;100035.94;4770141;30;20499;-79
2021/12/01 00:42:06;;;;;;;10.85;5.57;;;;;;;8.53;100.00;100034.31;4770130;30;20043;-78
2021/12/01 00:44:34;;;;;;;7.40;4.47;;;;;;;8.34;100.00;99999.50;4770231;30;20082;-78
2021/12/01 00:49:28;;;;;;;7.53;4.80;;;;;;;8.52;100.00;100017.22;4770128;30;20102;-77
2021/12/01 00:51:54;;;;;;;8.80;5.07;;;;;;;8.45;100.00;100009.09;4769776;30;20111;-77
2021/12/01 00:54:19;;;;;;;9.07;4.93;;;;;;;8.53;100.00;100021.44;4770305;30;20111;-77
2021/12/01 00:56:45;;;;;;;6.75;4.30;;;;;;;8.51;100.00;100013.00;4770121;30;20063;-77
2021/12/01 00:59:11;;;;;;;7.07;3.97;;;;;;;8.50;100.00;100004.47;4771244;30;20059;-78
2021/12/01 01:01:37;;;;;;;6.45;3.70;;;;;;;8.50;100.00;100011.38;4773727;30;20490;-81
2021/12/01 01:04:03;;;;;;;7.47;4.32;;;;;;;8.44;100.00;99986.03;4773738;30;20111;-75
2021/12/01 01:06:28;;;;;;;6.38;3.72;;;;;;;8.34;100.00;99986.66;4757386;30;20096;-82
2021/12/01 01:08:53;;;;;;;7.20;3.92;;;;;;;8.34;100.00;99970.38;4773684;30;20525;-80
2021/12/01 01:16:49;;;;;;;7.43;4.18;;;;;;;8.30;100.00;99956.06;4773767;30;20086;-81
2021/12/01 01:19:16;;;;;;;7.28;4.47;;;;;;;8.26;100.00;99946.94;4773509;30;20035;-81
2021/12/01 01:21:47;;;;;;;7.45;4.20;;;;;;;8.43;100.00;99961.25;4773165;30;20473;-82
2021/12/01 01:24:12;;;;;;;8.05;4.75;;;;;;;8.44;100.00;99965.47;4773211;30;20031;-77
2021/12/01 01:26:38;;;;;;;9.23;4.15;;;;;;;8.43;100.00;99954.34;4773409;30;20028;-78
2021/12/01 01:29:04;;;;;;;8.95;4.45;;;;;;;8.23;100.00;99927.38;4773232;30;20032;-77
2021/12/01 01:31:30;;;;;;;7.03;4.60;;;;;;;8.32;100.00;99937.03;4773235;30;20039;-81
2021/12/01 01:33:57;;;;;;;7.60;4.90;;;;;;;8.39;100.00;99939.22;4773280;30;20036;-76
2021/12/01 01:36:24;;;;;;;7.82;4.55;;;;;;;8.37;100.00;99943.66;4773188;30;20027;-78
2021/12/01 01:38:50;;;;;;;7.88;5.43;;;;;;;8.37;100.00;99933.38;4772833;30;20066;-81
2021/12/01 01:41:16;;;;;;;8.98;5.90;;;;;;;8.33;100.00;99936.09;4773052;30;20473;-78
2021/12/01 01:43:44;;;;;;;9.00;5.65;;;;;;;8.17;100.00;99908.97;4773102;30;20103;-79
2021/12/01 01:46:10;;;;;;;9.00;5.85;;;;;;;8.29;100.00;99924.38;4772884;30;20080;-77
2021/12/01 01:48:45;;;;;;;10.07;6.75;;;;;;;8.15;100.00;99883.34;4772911;30;20122;-79
2021/12/01 01:51:11;;;;;;;10.98;7.78;;;;;;;8.25;100.00;99910.06;4773094;30;20038;-77
2021/12/01 01:53:36;;;;;;;10.23;7.13;;;;;;;8.18;100.00;99902.91;4772710;30;20031;-82
2021/12/01 01:56:04;;;;;;;10.90;8.32;;;;;;;8.20;100.00;99912.16;4772637;30;20028;-77
2021/12/01 01:58:31;;;;;;;11.30;7.45;;;;;;;8.18;100.00;99890.03;4756745;30;20048;-77
2021/12/01 02:01:08;;;;;;;11.38;7.90;;;;;;;8.07;100.00;99884.81;4772749;30;20034;-76
2021/12/01 02:03:42;;;;;;;11.50;8.20;;;;;;;8.06;100.00;99878.81;4772702;30;20039;-77
2021/12/01 02:06:10;;;;;;;10.13;7.20;;;;;;;8.01;100.00;99856.00;4772672;30;20027;-77
2021/12/01 02:08:40;;;;;;;11.00;7.28;;;;;;;8.13;100.00;99876.66;4772483;30;20038;-77
2021/12/01 02:11:10;;;;;;;11.48;7.50;;;;;;;8.09;100.00;99865.78;4772434;30;20036;-77
2021/12/01 02:13:36;;;;;;;10.98;7.30;;;;;;;8.07;100.00;99861.66;4772575;30;20038;-82
2021/12/01 02:16:04;;;;;;;10.05;7.15;;;;;;;8.00;100.00;99841.50;4772537;30;20027;-82
2021/12/01 02:18:29;;;;;;;9.85;7.43;;;;;;;7.94;100.00;99835.94;4772538;30;20438;-81
2021/12/01 02:21:01;;;;;;;9.65;7.05;;;;;;;7.99;100.00;99847.56;4772447;30;20071;-79
2021/12/01 02:23:26;;;;;;;9.63;7.20;;;;;;;7.95;100.00;99837.59;4772245;30;20043;-78
2021/12/01 02:25:52;;;;;;;11.32;6.88;;;;;;;7.83;100.00;99816.13;4772503;30;20032;-82
2021/12/01 02:28:17;;;;;;;9.40;6.60;;;;;;;7.85;100.00;99798.84;4772132;30;20032;-78
2021/12/01 02:30:43;;;;;;;9.90;6.47;;;;;;;7.92;100.00;99812.91;4756577;30;20134;-82
2021/12/01 02:33:08;;;;;;;9.32;5.82;;;;;;;7.92;100.00;99814.66;4772300;30;20481;-82
2021/12/01 02:35:33;;;;;;;9.38;5.95;;;;;;;7.87;100.00;99794.44;4772188;30;20089;-82
2021/12/01 02:38:01;;;;;;;7.82;5.10;;;;;;;7.91;100.00;99798.44;4771925;30;20078;-83
2021/12/01 02:40:26;;;;;;;8.05;5.22;;;;;;;7.88;100.00;99784.97;4771694;30;20047;-81
2021/12/01 02:42:52;;;;;;;7.88;5.40;;;;;;;7.80;100.00;99753.81;4755897;30;20039;-81
2021/12/01 02:45:18;;;;;;;7.63;4.53;;;;;;;7.87;100.00;99767.91;4771980;30;20443;-81
2021/12/01 02:47:43;;;;;;;8.27;4.75;;;;;;;7.76;100.00;99750.63;4771931;30;20034;-81
2021/12/01 02:50:09;;;;;;;7.03;4.70;;;;;;;7.81;100.00;99752.91;4771966;30;20123;-82
2021/12/01 02:52:35;;;;;;;6.85;4.10;;;;;;;7.80;100.00;99746.94;4771996;30;20059;-82
2021/12/01 02:55:06;;;;;;;6.78;4.50;;;;;;;7.78;100.00;99740.28;4771545;30;20035;-81
2021/12/01 02:57:46;;;;;;;6.03;4.32;;;;;;;7.79;100.00;99744.47;4771705;30;20481;-81
2021/12/01 03:00:13;;;;;;;7.00;4.35;;;;;;;7.80;100.00;99743.53;4771629;30;20114;-80
2021/12/01 03:02:39;;;;;;;7.13;4.18;;;;;;;7.78;100.00;99746.22;4771680;30;20476;-82
2021/12/01 03:05:06;;;;;;;6.53;4.13;;;;;;;7.66;100.00;99716.22;4771623;30;20046;-82
2021/12/01 03:07:32;;;;;;;7.50;4.75;;;;;;;7.70;100.00;99733.06;4771614;30;20032;-81
2021/12/01 03:09:58;;;;;;;6.50;4.40;;;;;;;7.67;100.00;99716.13;4771561;30;20085;-82
2021/12/01 03:12:30;;;;;;;6.72;4.70;;;;;;;7.68;100.00;99728.06;4771410;30;20032;-80
2021/12/01 03:14:56;;;;;;;6.65;4.60;;;;;;;7.52;100.00;99673.50;4771480;30;20071;-81
2021/12/01 03:17:26;;;;;;;7.13;3.92;;;;;;;7.69;100.00;99704.00;4755419;30;20093;-82
2021/12/01 03:19:51;;;;;;;7.53;4.88;;;;;;;7.68;100.00;99704.91;4771451;30;20473;-81
2021/12/01 03:22:16;;;;;;;8.02;4.70;;;;;;;7.62;100.00;99697.63;4770842;30;20039;-76
2021/12/01 03:24:42;;;;;;;6.13;4.43;;;;;;;7.56;100.00;99671.53;4771375;30;20111;-77
2021/12/01 03:27:07;;;;;;;7.13;4.70;;;;;;;7.56;100.00;99672.34;4770899;30;20020;-80
2021/12/01 03:29:32;;;;;;;7.00;5.15;;;;;;;7.63;100.00;99680.47;4771328;30;20032;-78
2021/12/01 03:31:58;;;;;;;7.32;5.00;;;;;;;7.64;100.00;99676.97;4771192;30;20123;-78
2021/12/01 03:34:23;;;;;;;6.43;4.53;;;;;;;7.61;100.00;99670.28;4771220;30;20037;-80
2021/12/01 03:36:49;;;;;;;8.25;4.55;;;;;;;7.61;100.00;99654.88;4771039;30;20114;-77
2021/12/01 03:39:15;;;;;;;6.38;4.38;;;;;;;7.53;100.00;99638.34;4771095;30;20472;-77
2021/12/01 03:41:40;;;;;;;6.32;4.18;;;;;;;7.52;100.00;99640.09;4770634;30;20557;-78
2021/12/01 03:44:06;;;;;;;8.13;4.93;;;;;;;7.51;100.00;99625.63;4771076;30;20122;-77
2021/12/01 03:46:32;;;;;;;7.63;4.88;;;;;;;7.60;100.00;99635.25;4770988;30;20034;-77
2021/12/01 03:48:57;;;;;;;7.55;5.28;;;;;;;7.60;100.00;99632.69;4771180;30;20035;-77
2021/12/01 03:51:23;;;;;;;7.95;4.80;;;;;;;7.50;100.00;99616.28;4771136;30;20115;-80
2021/12/01 03:53:49;;;;;;;7.75;4.75;;;;;;;7.59;100.00;99623.34;4770857;30;20063;-79
2021/12/01 03:56:16;;;;;;;7.60;4.70;;;;;;;7.28;100.00;99563.03;4770495;30;20024;-77
2021/12/01 03:58:41;;;;;;;7.25;4.70;;;;;;;7.34;100.00;99569.47;4770690;30;20081;-78
2021/12/01 04:01:10;;;;;;;10.00;5.38;;;;;;;7.53;100.00;99595.50;4770708;30;20035;-81
2021/12/01 04:03:35;;;;;;;7.15;5.28;;;;;;;7.55;100.00;99585.94;4770743;30;20069;-78
2021/12/01 04:06:01;;;;;;;7.43;5.22;;;;;;;7.55;100.00;99575.66;4770678;30;20110;-82
2021/12/01 04:08:26;;;;;;;6.95;4.80;;;;;;;7.59;100.00;99568.56;4770696;30;20558;-78
2021/12/01 04:10:51;;;;;;;8.15;5.32;;;;;;;7.45;100.00;99541.28;4770845;30;20074;-81
2021/12/01 04:13:17;;;;;;;7.18;4.50;;;;;;;7.53;100.00;99548.44;4770354;30;20039;-81
2021/12/01 04:15:43;;;;;;;7.00;4.57;;;;;;;7.61;100.00;99544.41;4770534;30;20036;-82
2021/12/01 04:18:08;;;;;;;7.53;4.70;;;;;;;7.43;100.00;99517.44;4770748;30;20084;-81
2021/12/01 04:20:33;;;;;;;9.73;5.43;;;;;;;7.60;99.92;99535.06;4770482;30;20084;-82
2021/12/01 04:22:59;;;;;;;7.60;5.65;;;;;;;7.66;100.00;99537.16;4770445;30;20038;-77
2021/12/01 04:25:24;;;;;;;8.50;5.57;;;;;;;7.65;99.28;99532.16;4770458;30;20040;-77
2021/12/01 04:27:49;;;;;;;8.57;6.10;;;;;;;7.53;99.27;99503.03;4770209;30;20156;-77
2021/12/01 04:30:19;;;;;;;8.10;5.85;;;;;;;7.67;99.41;99517.44;4770224;30;20047;-76
2021/12/01 04:32:45;;;;;;;8.98;6.07;;;;;;;7.68;98.94;99512.22;4770210;30;20039;-82
2021/12/01 04:35:12;;;;;;;9.20;5.50;;;;;;;7.42;98.72;99455.00;4769932;30;20152;-82
2021/12/01 04:37:38;;;;;;;7.80;5.70;;;;;;;7.66;98.17;99487.53;4770010;30;20052;-82
2021/12/01 04:40:06;;;;;;;7.97;5.68;;;;;;;7.64;98.57;99477.38;4770400;30;20040;-77
2021/12/01 04:42:32;;;;;;;7.72;5.40;;;;;;;7.55;98.68;99462.63;4769896;30;20036;-81
2021/12/01 04:44:58;;;;;;;8.85;4.93;;;;;;;7.64;98.61;99468.84;4770172;30;20427;-82
2021/12/01 04:47:28;;;;;;;6.95;4.97;;;;;;;7.63;98.20;99452.63;4770263;30;20035;-82
2021/12/01 04:49:53;;;;;;;7.20;4.63;;;;;;;7.61;98.19;99453.66;4770431;30;20492;-81
2021/12/01 04:52:18;;;;;;;7.60;4.65;;;;;;;7.58;98.95;99464.19;4769994;30;20119;-81
2021/12/01 04:54:44;;;;;;;8.68;5.10;;;;;;;7.37;99.31;99438.25;4770206;30;20058;-77
2021/12/01 04:57:09;;;;;;;8.18;5.03;;;;;;;7.43;99.82;99440.41;4754157;30;20067;-79
2021/12/01 04:59:37;;;;;;;9.57;5.07;;;;;;;7.30;100.00;99419.09;4769936;30;20054;-80
2021/12/01 05:02:03;;;;;;;9.20;4.88;;;;;;;7.15;100.00;99416.69;4770061;30;20036;-77
2021/12/01 05:04:29;;;;;;;7.50;5.05;;;;;;;7.26;100.00;99438.22;4769826;30;20035;-81
2021/12/01 05:06:54;;;;;;;7.93;4.95;;;;;;;7.14;100.00;99419.38;4770054;30;20035;-77
2021/12/01 05:09:19;;;;;;;8.05;4.80;;;;;;;7.15;100.00;99421.81;4770144;30;20043;-80
2021/12/01 05:11:45;;;;;;;7.07;4.65;;;;;;;7.14;100.00;99438.16;4770051;30;20107;-77
2021/12/01 05:14:11;;;;;;;9.27;4.82;;;;;;;7.10;100.00;99413.66;4769677;30;20031;-80
2021/12/01 05:16:39;;;;;;;9.07;5.60;;;;;;;7.10;100.00;99413.66;4770190;30;20036;-79
2021/12/01 05:19:07;;;;;;;9.75;4.95;;;;;;;6.97;100.00;99389.75;4770082;30;20500;-77
2021/12/01 05:21:33;;;;;;;8.35;4.60;;;;;;;7.04;100.00;99393.53;4754055;30;20063;-77
2021/12/01 05:23:59;;;;;;;7.78;4.63;;;;;;;7.02;100.00;99397.97;4753986;30;20117;-78
2021/12/01 05:26:24;;;;;;;5.80;3.95;;;;;;;6.97;100.00;99382.06;4769812;30;20036;-77
2021/12/01 05:28:50;;;;;;;7.97;4.60;;;;;;;7.04;100.00;99396.09;4769677;30;20112;-81
2021/12/01 05:31:15;;;;;;;6.80;4.15;;;;;;;6.94;100.00;99384.84;4769829;30;20549;-81
2021/12/01 05:33:41;;;;;;;7.75;4.22;;;;;;;6.99;100.00;99390.50;4769749;30;20439;-77
2021/12/01 05:36:08;;;;;;;7.20;3.83;;;;;;;6.92;100.00;99375.63;4769988;30;20111;-77
2021/12/01 05:38:33;;;;;;;7.05;3.60;;;;;;;6.92;100.00;99373.06;4769699;30;20052;-82
2021/12/01 05:40:58;;;;;;;6.07;3.38;;;;;;;6.87;100.00;99357.97;4769740;30;20047;-77
2021/12/01 05:43:24;;;;;;;5.65;3.50;;;;;;;6.89;100.00;99368.97;4769897;30;20036;-82
2021/12/01 05:45:50;;;;;;;6.53;2.80;;;;;;;6.92;100.00;99371.31;4771341;30;20114;-76
2021/12/01 05:48:15;;;;;;;5.43;3.10;;;;;;;6.90;100.00;99356.03;4772868;30;20097;-81
2021/12/01 05:50:41;;;;;;;3.88;2.80;;;;;;;6.86;100.00;99348.66;4773095;30;20071;-82
2021/12/01 05:53:07;;;;;;;4.35;2.78;;;;;;;6.80;100.00;99341.41;4772884;30;20056;-79
2021/12/01 05:55:33;;;;;;;5.40;3.35;;;;;;;6.80;100.00;99324.25;4772980;30;20434;-82
2021/12/01 05:57:58;;;;;;;4.80;2.92;;;;;;;6.76;100.00;99304.06;4772883;30;20043;-82
2021/12/01 06:00:24;;;;;;;3.75;2.95;;;;;;;6.85;100.00;99327.31;4756092;30;20071;-82
2021/12/01 06:02:51;;;;;;;4.00;2.75;;;;;;;6.88;100.00;99310.88;4772708;30;20059;-81
2021/12/01 06:05:18;;;;;;;7.10;2.72;;;;;;;6.73;100.00;99291.47;4772963;30;20456;-78
2021/12/01 06:07:43;;;;;;;3.97;2.78;;;;;;;6.87;100.00;99301.53;4772714;30;20115;-80
2021/12/01 06:10:09;;;;;;;4.45;2.75;;;;;;;6.86;100.00;99302.47;4772589;30;20074;-77
2021/12/01 06:12:35;;;;;;;4.68;2.90;;;;;;;6.83;100.00;99297.56;4756116;30;20047;-77
2021/12/01 06:15:01;;;;;;;4.53;3.05;;;;;;;6.87;100.00;99299.78;4772125;30;20044;-79
2021/12/01 06:17:26;;;;;;;4.68;2.67;;;;;;;6.63;100.00;99263.06;4772359;30;20556;-80
2021/12/01 06:19:53;;;;;;;4.60;2.80;;;;;;;6.87;100.00;99278.44;4772546;30;20032;-81
2021/12/01 06:22:18;;;;;;;3.58;2.40;;;;;;;6.79;100.00;99262.81;4756396;30;20036;-83
2021/12/01 06:24:45;;;;;;;3.95;2.70;;;;;;;6.79;100.00;99258.50;4772492;30;20046;-80
2021/12/01 06:27:11;;;;;;;4.70;2.67;;;;;;;6.85;100.00;99272.59;4772345;30;20055;-80
2021/12/01 06:29:36;;;;;;;4.35;2.67;;;;;;;6.87;100.00;99263.88;4772120;30;20046;-82
2021/12/01 06:32:02;;;;;;;4.75;3.15;;;;;;;6.89;100.00;99271.47;4755704;30;20044;-81
2021/12/01 06:34:27;;;;;;;5.15;3.00;;;;;;;6.89;100.00;99268.91;4772209;30;20106;-81
2021/12/01 06:36:53;;;;;;;4.40;3.00;;;;;;;6.88;100.00;99264.69;4772028;30;20123;-81
2021/12/01 06:39:18;;;;;;;4.75;2.97;;;;;;;6.89;100.00;99248.38;4772255;30;20081;-81
2021/12/01 06:41:44;;;;;;;4.90;3.20;;;;;;;6.78;100.00;99230.34;4772110;30;20401;-83
2021/12/01 06:44:09;;;;;;;4.47;3.30;;;;;;;6.78;100.00;99223.47;4755947;30;20043;-83
2021/12/01 06:46:34;;;;;;;4.50;3.17;;;;;;;6.92;100.00;99250.72;4771683;30;20043;-83
2021/12/01 06:49:00;;;;;;;4.35;3.05;;;;;;;6.94;100.00;99238.59;4772136;30;20505;-81
2021/12/01 06:51:25;;;;;;;5.93;3.50;;;;;;;6.94;100.00;99242.91;4771845;30;20418;-82
2021/12/01 06:53:51;;;;;;;4.95;3.53;;;;;;;6.79;100.00;99216.63;4771997;30;20438;-83
2021/12/01 06:56:18;;;;;;;6.65;3.65;;;;;;;6.93;100.00;99226.69;4755380;30;20477;-78
2021/12/01 06:58:45;;;;;;;6.00;3.70;;;;;;;6.95;100.00;99204.28;4771608;30;20381;-82
2021/12/01 07:01:10;;;;;;;6.25;3.97;;;;;;;6.97;100.00;99225.50;4771562;30;20027;-91
2021/12/01 07:03:36;;;;;;;6.30;3.95;;;;;;;6.84;100.00;99199.13;4771748;30;20035;-89
2021/12/01 07:06:02;;;;;;;5.70;4.00;;;;;;;6.72;100.00;99182.91;4771968;30;20031;-90
2021/12/01 07:08:28;;;;;;;7.05;3.85;;;;;;;6.90;100.00;99209.78;4771735;30;20038;-87
2021/12/01 07:10:53;;;;;;;5.57;3.80;;;;;;;6.86;100.00;99194.69;4771832;30;20043;-91
2021/12/01 07:13:19;;;;;;;7.30;4.28;;;;;;;6.98;100.00;99205.81;4771859;30;20035;-91
2021/12/01 07:15:45;;;;;;;8.48;4.35;;;;;;;7.00;100.00;99217.63;4771553;30;20040;-88
2021/12/01 07:18:10;;;;;;;6.63;4.03;;;;;;;6.84;100.00;99183.75;4771187;30;20050;-87
2021/12/01 07:20:36;;;;;;;6.55;4.35;;;;;;;6.90;100.00;99191.00;4772075;30;20039;-94
2021/12/01 07:23:04;;;;;;;7.13;4.57;;;;;;;7.03;100.00;99209.69;4773571;30;20044;-94
2021/12/01 07:25:30;;;;;;;6.75;3.95;;;;;;;6.92;100.00;99184.00;4775482;30;20032;-78
2021/12/01 07:27:56;;;;;;;9.23;4.65;;;;;;;7.07;100.00;99221.34;4771331;30;20492;-84
2021/12/01 07:30:21;;;;;;;7.00;4.57;;;;;;;6.91;100.00;99192.63;4771442;30;20047;-93
2021/12/01 07:32:48;;;;;;;8.25;4.32;;;;;;;6.92;100.00;99175.47;4771008;30;20044;-82
2021/12/01 07:35:15;;;;;;;7.05;4.32;;;;;;;7.11;100.00;99209.94;4771133;30;20058;-89
2021/12/01 07:37:40;;;;;;;8.43;4.57;;;;;;;7.07;100.00;99203.38;4770983;30;20055;-85
2021/12/01 07:40:06;;;;;;;7.55;4.35;;;;;;;7.14;100.00;99203.75;4772039;30;20110;-86
2021/12/01 07:42:31;;;;;;;6.72;4.45;;;;;;;6.50;100.00;99086.22;4770868;30;20508;-87
2021/12/01 07:44:57;;;;;;;6.85;4.25;;;;;;;6.84;100.00;99125.53;4770998;30;20093;-86
2021/12/01 07:47:22;;;;;;;8.50;4.63;;;;;;;7.18;100.00;99172.63;4770698;30;20074;-87
2021/12/01 07:49:47;;;;;;;6.97;4.25;;;;;;;7.18;100.00;99171.78;4770785;30;20032;-91
2021/12/01 07:52:13;;;;;;;8.10;5.05;;;;;;;7.09;100.00;99157.09;4770972;30;20035;-88
2021/12/01 07:54:39;;;;;;;8.30;4.70;;;;;;;7.23;100.00;99174.81;4770721;30;20036;-87
2021/12/01 07:57:05;;;;;;;8.82;4.93;;;;;;;6.94;100.00;99130.00;4770789;30;20032;-86
2021/12/01 07:59:31;;;;;;;7.57;5.28;;;;;;;7.25;100.00;99165.25;4770763;30;20422;-89
2021/12/01 08:02:04;;;;;;;8.05;4.80;;;;;;;7.08;100.00;99138.31;4774683;24;20098;-89
2021/12/01 08:04:32;;;;;;;7.78;4.75;;;;;;;6.75;100.00;99081.81;4752726;30;20028;-91
2021/12/01 08:06:58;;;;;;;8.50;5.25;;;;;;;6.87;100.00;99086.00;4752901;30;20040;-89
2021/12/01 08:09:25;;;;;;;7.93;4.68;;;;;;;7.35;100.00;99166.19;4752933;30;20032;-93
2021/12/01 08:11:52;;;;;;;8.95;5.15;;;;;;;7.29;100.00;99153.81;4752855;30;20547;-90
2021/12/01 08:14:17;;;;;;;8.82;5.10;;;;;;;7.37;100.00;99160.91;4753306;30;20478;-93
2021/12/01 08:16:43;;;;;;;8.23;5.28;;;;;;;7.36;100.00;99164.44;4752899;30;20035;-91
2021/12/01 08:19:08;;;;;;;8.13;5.55;;;;;;;7.36;100.00;99160.09;4752611;30;20036;-92
2021/12/01 08:21:35;;;;;;;8.30;5.53;;;;;;;7.21;100.00;99139.94;4752896;30;20032;-91
2021/12/01 08:24:00;;;;;;;9.40;5.28;;;;;;;7.32;100.00;99157.91;4752717;30;20032;-92
2021/12/01 08:26:26;;;;;;;9.10;6.03;;;;;;;7.34;100.00;99166.31;4752609;30;20047;-92
2021/12/01 08:28:52;;;;;;;9.73;5.60;;;;;;;6.97;100.00;99096.38;4752690;30;20074;-92
2021/12/01 08:31:19;;;;;;;10.02;6.35;;;;;;;7.18;100.00;99125.59;4752699;30;20097;-93
2021/12/01 08:33:45;;;;;;;10.68;6.53;;;;;;;7.37;100.00;99130.91;4752410;30;20363;-88
2021/12/01 08:36:11;;;;;;;12.15;8.18;;;;;;;7.07;100.00;99095.56;4752423;30;20170;-89
2021/12/01 08:38:38;;;;;;;10.93;6.40;;;;;;;7.38;100.00;99135.16;4736671;30;20111;-87
2021/12/01 08:41:06;;;;;;;11.25;6.53;;;;;;;6.68;100.00;99029.31;4752392;30;20127;-83
2021/12/01 08:43:35;;;;;;;11.07;6.35;;;;;;;7.45;100.00;99132.91;4752435;30;20055;-90
2021/12/01 08:46:02;;;;;;;9.23;6.85;;;;;;;7.39;100.00;99125.69;4752366;30;20040;-87
2021/12/01 08:48:30;;;;;;;11.32;7.13;;;;;;;7.38;100.00;99088.94;4752057;30;20156;-84
2021/12/01 08:50:56;;;;;;;8.88;6.55;;;;;;;6.82;100.00;98998.31;4752160;30;20032;-88
2021/12/01 08:53:23;;;;;;;11.60;7.10;;;;;;;7.38;100.00;99088.13;4752542;30;20044;-90
2021/12/01 08:55:48;;;;;;;9.30;5.60;;;;;;;7.67;100.00;99130.34;4752223;30;20082;-84
2021/12/01 08:58:15;;;;;;;15.25;6.40;;;;;;;7.54;100.00;99091.09;4752286;30;20075;-90
2021/12/01 09:00:46;;;;;;;9.60;6.05;;;;;;;7.58;100.00;99091.69;4752380;30;20036;-90
2021/12/01 09:03:16;;;;;;;9.13;5.33;;;;;;;7.79;100.00;99120.03;4751913;30;20123;-91
2021/12/01 09:05:44;;;;;;;8.07;5.13;;;;;;;7.50;100.00;99081.19;4752146;30;20028;-91
2021/12/01 09:08:10;;;;;;;8.07;6.00;;;;;;;7.76;100.00;99137.28;4752610;30;20070;-89
2021/12/01 09:10:36;;;;;;;8.55;5.90;;;;;;;7.73;100.00;99144.44;4752414;30;20080;-91
2021/12/01 09:13:04;;;;;;;11.13;6.22;;;;;;;7.62;100.00;99118.75;4752251;30;20045;-90
2021/12/01 09:15:29;;;;;;;9.45;6.03;;;;;;;7.67;100.00;99135.47;4752344;30;20036;-91
2021/12/01 09:17:56;;;;;;;9.95;6.40;;;;;;;7.61;100.00;99124.84;4751960;30;20371;-92
2021/12/01 09:20:22;;;;;;;9.52;6.50;;;;;;;7.53;100.00;99122.06;4753426;30;20031;-90
2021/12/01 09:22:47;;;;;;;10.40;7.07;;;;;;;7.69;100.00;99153.34;4755799;30;20040;-88
2021/12/01 09:25:13;;;;;;;12.40;7.10;;;;;;;7.69;100.00;99148.19;4755713;30;20111;-90
2021/12/01 09:27:38;;;;;;;9.63;6.82;;;;;;;7.69;100.00;99153.34;4739484;30;20044;-91
2021/12/01 09:30:06;;;;;;;9.93;6.43;;;;;;;7.69;100.00;99154.16;4755589;30;20033;-88
2021/12/01 09:32:34;;;;;;;9.43;6.68;;;;;;;7.65;100.00;99146.78;4739347;30;20119;-88
2021/12/01 09:35:00;;;;;;;9.13;6.13;;;;;;;7.67;100.00;99165.44;4755225;30;20032;-87
2021/12/01 09:37:26;;;;;;;10.85;6.97;;;;;;;7.64;100.00;99163.94;4755199;30;20473;-87
2021/12/01 09:39:52;;;;;;;10.48;6.85;;;;;;;7.59;100.00;99153.22;4755381;30;20036;-89
2021/12/01 09:42:17;;;;;;;12.32;7.68;;;;;;;7.68;100.00;99183.34;4755335;30;20033;-88
2021/12/01 09:44:43;;;;;;;8.35;4.80;;;;;;;7.54;100.00;99175.06;4739518;30;20044;-87
2021/12/01 09:47:08;;;;;;;8.23;3.33;;;;;;;7.47;100.00;99179.81;4755009;30;20028;-88
2021/12/01 09:49:34;;;;;;;9.32;2.78;;;;;;;7.39;100.00;99192.47;4755081;30;20418;-88
2021/12/01 09:52:00;;;;;;;10.60;1.95;;;;;;;7.25;100.00;99161.84;4754866;30;20047;-89
2021/12/01 09:54:25;;;;;;;7.45;1.80;;;;;;;7.21;100.00;99178.44;4755193;30;20025;-87
2021/12/01 09:56:51;;;;;;;6.35;1.90;;;;;;;6.96;100.00;99144.34;4755098;30;20091;-88
2021/12/01 09:59:16;;;;;;;7.95;2.10;;;;;;;7.20;100.00;99185.31;4754890;30;20039;-84
2021/12/01 10:01:42;;;;;;;9.25;2.42;;;;;;;7.21;100.00;99174.13;4754668;30;20493;-89
2021/12/01 10:04:07;;;;;;;8.38;2.40;;;;;;;7.31;100.00;99176.81;4754904;30;20028;-85
2021/12/01 10:06:33;;;;;;;12.55;3.22;;;;;;;7.40;100.00;99169.22;4754825;30;20032;-82
2021/12/01 10:09:02;;;;;;;9.80;2.60;;;;;;;7.47;100.00;99162.69;4755452;30;20033;-84
2021/12/01 10:11:34;;;;;;;11.82;2.58;;;;;;;7.30;99.94;99134.09;4754892;30;20029;-91
2021/12/01 10:14:00;;;;;;;10.20;2.17;;;;;;;7.41;100.00;99160.59;4754691;30;20419;-90
2021/12/01 10:16:28;;;;;;;12.98;1.90;;;;;;;7.34;99.42;99164.53;4754766;30;20040;-88
2021/12/01 10:18:58;;;;;;;6.43;1.73;;;;;;;7.31;99.82;99166.53;4754646;30;20394;-85
2021/12/01 10:21:37;;;;;;;9.68;2.25;;;;;;;7.17;100.00;99142.72;4754608;30;20028;-92
2021/12/01 10:24:09;;;;;;;13.77;2.20;;;;;;;7.17;99.04;99144.47;4754755;30;20051;-86
2021/12/01 10:26:44;;;;;;;13.55;1.98;;;;;;;7.38;97.10;99178.00;4754569;30;20020;-87
2021/12/01 10:29:16;;;;;;;7.32;1.73;;;;;;;7.41;97.36;99158.03;4754402;30;20036;-88
2021/12/01 10:31:47;;;;;;;10.82;1.80;;;;;;;7.64;96.77;99176.78;4753584;30;20082;-86
2021/12/01 10:34:31;;;;;;;9.18;1.52;;;;;;;7.64;96.59;99174.22;4754530;30;20062;-87
2021/12/01 10:37:26;;;;;;;10.52;1.75;;;;;;;7.73;96.28;99167.56;4754225;30;20032;-85
2021/12/01 10:40:20;;;;;;;10.23;1.80;;;;;;;7.87;95.51;99158.78;4754277;30;20032;-87
2021/12/01 10:43:09;;;;;;;9.88;1.40;;;;;;;8.21;93.95;99159.50;4754167;30;20047;-86
2021/12/01 10:45:38;;;;;;;10.40;2.05;;;;;;;8.25;92.46;99159.13;4754472;30;20030;-87
2021/12/01 10:48:06;;;;;;;7.43;1.20;;;;;;;8.14;90.85;99158.34;4754218;30;20036;-84
2021/12/01 10:50:35;;;;;;;7.03;1.30;;;;;;;8.06;89.90;99151.25;4754081;30;20051;-86
2021/12/01 10:53:08;;;;;;;6.78;1.33;;;;;;;8.13;90.12;99167.00;4753967;30;20070;-84
2021/12/01 10:55:44;;;;;;;4.72;1.02;;;;;;;8.10;88.61;99162.94;4753956;30;20044;-86
2021/12/01 10:58:10;;;;;;;4.93;1.20;;;;;;;7.97;88.17;99150.25;4754012;30;20074;-88
2021/12/01 11:00:39;;;;;;;6.13;1.13;;;;;;;8.07;89.76;99165.75;4753989;30;20487;-89
2021/12/01 11:03:16;;;;;;;4.40;1.20;;;;;;;8.07;90.01;99165.75;4753776;30;20059;-83
2021/12/01 11:05:46;;;;;;;6.15;1.23;;;;;;;7.93;88.54;99160.88;4753943;30;20079;-89
2021/12/01 11:08:21;;;;;;;4.45;1.30;;;;;;;7.89;89.10;99167.19;4753721;30;20389;-87
2021/12/01 11:10:52;;;;;;;5.32;1.08;;;;;;;7.92;88.67;99162.63;4758562;30;20036;-86
2021/12/01 11:13:18;;;;;;;7.50;1.40;;;;;;;7.99;89.17;99157.81;4757648;30;20036;-85
2021/12/01 11:15:55;;;;;;;4.10;1.27;;;;;;;8.03;89.75;99161.78;4759251;30;20557;-87
2021/12/01 11:18:28;;;;;;;8.05;1.33;;;;;;;7.96;88.21;99164.03;4756814;30;20105;-88
2021/12/01 11:20:57;;;;;;;8.20;1.67;;;;;;;8.05;88.72;99175.31;4756796;30;20063;-86
2021/12/01 11:23:26;;;;;;;8.85;1.48;;;;;;;8.10;87.88;99174.97;4755462;30;20034;-85
2021/12/01 11:25:56;;;;;;;7.65;1.45;;;;;;;7.98;88.06;99162.16;4755082;30;20116;-84
2021/12/01 11:28:26;;;;;;;8.68;1.83;;;;;;;8.06;88.52;99174.38;4754797;30;20036;-85
2021/12/01 11:30:58;;;;;;;3.97;1.13;;;;;;;8.08;87.54;99175.09;4753534;30;20092;-87
2021/12/01 11:33:24;;;;;;;7.00;1.52;;;;;;;8.09;87.41;99163.88;4755484;30;20036;-87
2021/12/01 11:35:53;;;;;;;7.85;1.40;;;;;;;8.15;87.68;99165.13;4753300;30;20072;-85
2021/12/01 11:38:19;;;;;;;5.47;1.30;;;;;;;7.98;87.63;99139.00;4761296;30;20110;-79